Time;durP1;ratioP1;P1;durP2;ratioP2;P2;SDS_P1;SDS_P2;PMS_P1;PMS_P2;Temp;Humidity;BMP_temperature;BMP_pressure;BME280_temperature;BME280_humidity;BME280_pressure;Samples;Min_cycle;Max_cycle;Signal;HPM_P1;HPM_P2
2022/01/20 00:00:31;;;;;;;0.05;0.00;;;;;;;;;;1775448;80;26333;-34
2022/01/20 00:02:57;;;;;;;0.00;0.00;;;;;;;;;;1772767;80;26306;-34
2022/01/20 00:08:12;;;;;;;0.00;0.00;;;;;;;;;;1770051;79;26435;-37
2022/01/20 00:27:10;;;;;;;0.00;0.00;;;;;;;;;;1771165;79;26325;-37
2022/01/20 00:32:32;;;;;;;0.05;0.05;;;;;;;;;;1765716;79;26404;-34
2022/01/20 00:35:11;;;;;;;0.05;0.05;;;;;;;;;;1781444;80;26247;-34
2022/01/20 00:37:23;;;;;;;0.10;0.10;;;;;;;;;;1772121;80;26710;-34
2022/01/20 00:39:51;;;;;;;2.35;0.53;;;;;;;;;;1771440;79;26318;-34
2022/01/20 00:42:18;;;;;;;0.10;0.10;;;;;;;;;;1783922;80;26739;-37
2022/01/20 00:44:46;;;;;;;0.10;0.10;;;;;;;;;;1780482;79;26718;-34
2022/01/20 00:47:14;;;;;;;0.10;0.10;;;;;;;;;;1783698;79;26378;-38
2022/01/20 00:49:42;;;;;;;0.00;0.00;;;;;;;;;;1759661;80;26864;-37
2022/01/20 00:52:10;;;;;;;0.10;0.10;;;;;;;;;;1783718;79;26286;-34
2022/01/20 00:54:37;;;;;;;0.00;0.00;;;;;;;;;;1783815;79;26711;-35
2022/01/20 00:57:05;;;;;;;0.00;0.00;;;;;;;;;;1779093;79;27503;-34
2022/01/20 00:59:33;;;;;;;0.10;0.10;;;;;;;;;;1780351;80;26688;-34
2022/01/20 01:02:02;;;;;;;0.10;0.10;;;;;;;;;;1769398;79;26307;-35
2022/01/20 01:04:29;;;;;;;0.08;0.08;;;;;;;;;;1782484;79;26709;-34
2022/01/20 01:07:29;;;;;;;0.10;0.00;;;;;;;;;;1781263;79;26274;-34
2022/01/20 01:09:41;;;;;;;0.00;0.00;;;;;;;;;;1785081;80;26333;-34
2022/01/20 01:12:15;;;;;;;0.00;0.00;;;;;;;;;;1789355;79;26806;-34
2022/01/20 01:14:44;;;;;;;0.05;0.05;;;;;;;;;;1774989;79;26337;-34
2022/01/20 01:20:09;;;;;;;0.10;0.10;;;;;;;;;;1789325;79;26317;-37
2022/01/20 01:24:54;;;;;;;0.00;0.00;;;;;;;;;;1784450;79;26762;-38
2022/01/20 01:27:20;;;;;;;0.00;0.00;;;;;;;;;;1787690;79;26304;-37
2022/01/20 01:32:59;;;;;;;0.00;0.00;;;;;;;;;;1777884;79;26352;-34
2022/01/20 01:35:05;;;;;;;0.10;0.10;;;;;;;;;;1775569;80;26377;-37
2022/01/20 01:40:04;;;;;;;0.00;0.00;;;;;;;;;;1774936;79;26384;-35
2022/01/20 01:42:42;;;;;;;1.07;0.10;;;;;;;;;;1788680;80;26291;-34
2022/01/20 01:45:11;;;;;;;0.15;0.15;;;;;;;;;;1768387;80;26746;-36
2022/01/20 01:47:39;;;;;;;0.00;0.00;;;;;;;;;;1769412;80;26359;-34
2022/01/20 01:50:07;;;;;;;0.20;0.10;;;;;;;;;;1769629;80;26684;-37
2022/01/20 01:52:34;;;;;;;0.10;0.10;;;;;;;;;;1783100;80;26726;-36
2022/01/20 01:55:01;;;;;;;0.20;0.00;;;;;;;;;;1787153;80;26238;-34
2022/01/20 01:57:29;;;;;;;0.00;0.00;;;;;;;;;;1771247;80;26273;-35
2022/01/20 01:59:56;;;;;;;0.00;0.00;;;;;;;;;;1781338;80;26293;-34
2022/01/20 02:02:24;;;;;;;0.00;0.00;;;;;;;;;;1760002;79;26273;-37
2022/01/20 02:04:51;;;;;;;0.00;0.00;;;;;;;;;;1846450;73;27225;-32
2022/01/20 02:20:46;;;;;;;0.10;0.10;;;;;;;;;;1818771;79;26292;-37
2022/01/20 02:23:13;;;;;;;0.00;0.00;;;;;;;;;;1818641;79;26743;-34
2022/01/20 02:25:40;;;;;;;0.00;0.00;;;;;;;;;;1816164;79;26793;-35
2022/01/20 02:28:09;;;;;;;0.00;0.00;;;;;;;;;;1818697;79;26345;-35
2022/01/20 02:30:37;;;;;;;0.10;0.10;;;;;;;;;;1818750;79;26228;-34
2022/01/20 02:33:06;;;;;;;0.08;0.05;;;;;;;;;;1818431;79;26711;-34
2022/01/20 02:35:34;;;;;;;0.00;0.00;;;;;;;;;;1814343;77;26672;-34
2022/01/20 02:38:11;;;;;;;0.40;0.00;;;;;;;;;;1815244;79;26286;-34
2022/01/20 02:45:56;;;;;;;0.10;0.10;;;;;;;;;;1803092;79;26384;-37
2022/01/20 02:48:23;;;;;;;0.03;0.03;;;;;;;;;;1818482;79;26767;-34
2022/01/20 02:50:51;;;;;;;0.00;0.00;;;;;;;;;;1815449;79;26344;-34
2022/01/20 02:53:18;;;;;;;1.75;0.10;;;;;;;;;;1818812;79;26294;-37
2022/01/20 02:55:45;;;;;;;0.00;0.00;;;;;;;;;;1818981;79;26318;-36
2022/01/20 02:58:12;;;;;;;0.00;0.00;;;;;;;;;;1819180;79;26830;-37
2022/01/20 03:00:40;;;;;;;0.85;0.10;;;;;;;;;;1802979;79;26739;-35
2022/01/20 03:03:07;;;;;;;0.08;0.05;;;;;;;;;;1811124;79;26275;-34
2022/01/20 03:05:35;;;;;;;1.85;0.08;;;;;;;;;;1833195;78;26344;-34
2022/01/20 03:08:03;;;;;;;0.00;0.00;;;;;;;;;;1833915;78;26679;-34
2022/01/20 03:10:30;;;;;;;0.00;0.00;;;;;;;;;;1834115;78;26265;-34
2022/01/20 03:12:58;;;;;;;0.10;0.10;;;;;;;;;;1828022;77;26844;-34
2022/01/20 03:15:25;;;;;;;0.10;0.10;;;;;;;;;;1831638;78;26211;-34
2022/01/20 03:17:53;;;;;;;0.10;0.10;;;;;;;;;;1824812;78;26750;-36
2022/01/20 03:20:20;;;;;;;0.00;0.00;;;;;;;;;;1829123;78;26259;-34
2022/01/20 03:22:47;;;;;;;0.10;0.10;;;;;;;;;;1824714;78;26365;-37
2022/01/20 03:25:15;;;;;;;0.30;0.10;;;;;;;;;;1831258;78;26328;-34
2022/01/20 03:27:42;;;;;;;0.17;0.00;;;;;;;;;;1834204;78;26257;-34
2022/01/20 03:30:10;;;;;;;0.75;0.08;;;;;;;;;;1819929;78;26336;-35
2022/01/20 03:32:37;;;;;;;0.00;0.00;;;;;;;;;;1822174;78;26752;-34
2022/01/20 03:35:07;;;;;;;0.00;0.00;;;;;;;;;;1828880;77;26334;-34
2022/01/20 03:37:34;;;;;;;0.10;0.10;;;;;;;;;;1826188;78;26281;-37
2022/01/20 03:40:02;;;;;;;0.00;0.00;;;;;;;;;;1828926;78;26667;-34
2022/01/20 03:42:29;;;;;;;0.00;0.00;;;;;;;;;;1829630;78;26278;-36
2022/01/20 03:44:57;;;;;;;0.00;0.00;;;;;;;;;;1817660;78;26292;-34
2022/01/20 03:47:25;;;;;;;0.10;0.10;;;;;;;;;;1825405;78;26738;-34
2022/01/20 03:50:09;;;;;;;0.00;0.00;;;;;;;;;;1820860;78;26294;-34
2022/01/20 03:52:23;;;;;;;0.10;0.10;;;;;;;;;;1822113;78;26728;-34
2022/01/20 03:54:51;;;;;;;0.15;0.15;;;;;;;;;;1823200;78;26408;-36
2022/01/20 03:57:19;;;;;;;0.00;0.00;;;;;;;;;;1824047;78;26887;-37
2022/01/20 03:59:48;;;;;;;1.55;0.00;;;;;;;;;;1833371;78;26314;-36
2022/01/20 04:02:15;;;;;;;0.00;0.00;;;;;;;;;;1831651;77;26402;-36
2022/01/20 04:04:42;;;;;;;1.15;0.20;;;;;;;;;;1828654;78;26372;-35
2022/01/20 04:07:10;;;;;;;0.17;0.17;;;;;;;;;;1829000;78;26786;-34
2022/01/20 04:09:37;;;;;;;1.17;0.00;;;;;;;;;;1829273;78;26290;-33
2022/01/20 04:12:05;;;;;;;0.47;0.10;;;;;;;;;;1825527;78;26338;-37
2022/01/20 04:14:34;;;;;;;0.10;0.10;;;;;;;;;;1827494;77;26781;-34
2022/01/20 04:17:04;;;;;;;0.90;0.03;;;;;;;;;;1828246;77;26358;-34
2022/01/20 04:19:32;;;;;;;0.10;0.10;;;;;;;;;;1832658;77;27411;-34
2022/01/20 04:22:01;;;;;;;0.17;0.10;;;;;;;;;;1827955;78;26722;-34
2022/01/20 04:24:29;;;;;;;0.00;0.00;;;;;;;;;;1833468;78;26294;-37
2022/01/20 04:26:56;;;;;;;0.10;0.10;;;;;;;;;;1829498;78;26822;-34
2022/01/20 04:29:23;;;;;;;0.17;0.10;;;;;;;;;;1831513;78;26278;-34
2022/01/20 04:31:51;;;;;;;0.33;0.20;;;;;;;;;;1828930;78;26285;-37
2022/01/20 04:34:18;;;;;;;0.00;0.00;;;;;;;;;;1833661;78;26306;-36
2022/01/20 04:36:47;;;;;;;0.10;0.10;;;;;;;;;;1831733;78;26282;-36
2022/01/20 04:39:18;;;;;;;0.03;0.00;;;;;;;;;;1833448;77;26340;-34
2022/01/20 04:41:45;;;;;;;0.10;0.10;;;;;;;;;;1831748;77;26762;-35
2022/01/20 04:44:19;;;;;;;0.00;0.00;;;;;;;;;;1829150;78;26292;-34
2022/01/20 04:46:48;;;;;;;0.20;0.20;;;;;;;;;;1832452;78;26820;-33
2022/01/20 04:57:26;;;;;;;0.10;0.10;;;;;;;;;;1833481;78;26236;-34
2022/01/20 04:59:54;;;;;;;0.00;0.00;;;;;;;;;;1832758;78;27702;-34
2022/01/20 05:02:25;;;;;;;0.17;0.17;;;;;;;;;;1832419;78;26392;-35
2022/01/20 05:04:52;;;;;;;0.10;0.10;;;;;;;;;;1832959;77;26455;-37
2022/01/20 05:07:23;;;;;;;0.20;0.20;;;;;;;;;;1831045;78;26345;-34
2022/01/20 05:09:48;;;;;;;0.10;0.10;;;;;;;;;;1828061;78;26309;-34
2022/01/20 05:12:21;;;;;;;0.10;0.10;;;;;;;;;;1833350;78;26842;-36
2022/01/20 05:14:45;;;;;;;0.95;0.13;;;;;;;;;;1832249;77;26338;-36
2022/01/20 05:17:12;;;;;;;0.37;0.10;;;;;;;;;;1833059;77;26290;-35
2022/01/20 05:19:39;;;;;;;0.10;0.10;;;;;;;;;;1831421;77;26363;-36
2022/01/20 05:22:06;;;;;;;0.05;0.05;;;;;;;;;;1825899;78;26349;-34
2022/01/20 05:24:34;;;;;;;0.10;0.10;;;;;;;;;;1832855;77;26286;-34
2022/01/20 05:27:01;;;;;;;0.10;0.10;;;;;;;;;;1824402;78;26282;-36
2022/01/20 05:29:28;;;;;;;0.17;0.13;;;;;;;;;;1824099;77;26778;-35
2022/01/20 05:31:55;;;;;;;0.28;0.10;;;;;;;;;;1832848;77;26765;-36
2022/01/20 05:34:23;;;;;;;0.40;0.05;;;;;;;;;;1833536;77;26278;-34
2022/01/20 05:36:50;;;;;;;0.10;0.10;;;;;;;;;;1833849;77;26211;-34
2022/01/20 05:39:17;;;;;;;0.50;0.33;;;;;;;;;;1822282;77;26294;-34
2022/01/20 05:41:46;;;;;;;1.35;0.10;;;;;;;;;;1830466;78;26236;-34
2022/01/20 05:44:13;;;;;;;0.10;0.10;;;;;;;;;;1824538;78;26329;-35
2022/01/20 05:46:46;;;;;;;0.10;0.10;;;;;;;;;;1832707;78;26230;-35
2022/01/20 05:49:10;;;;;;;0.42;0.20;;;;;;;;;;1816995;78;26797;-34
2022/01/20 05:51:38;;;;;;;0.10;0.10;;;;;;;;;;1830223;77;26009;-34
2022/01/20 05:54:07;;;;;;;0.10;0.10;;;;;;;;;;1827403;78;26382;-36
2022/01/20 05:56:35;;;;;;;0.20;0.20;;;;;;;;;;1826906;78;26703;-37
2022/01/20 05:59:03;;;;;;;0.17;0.17;;;;;;;;;;1833774;77;26303;-34
2022/01/20 06:01:32;;;;;;;0.20;0.20;;;;;;;;;;1832837;78;26376;-37
2022/01/20 06:04:00;;;;;;;0.10;0.10;;;;;;;;;;1828064;78;26302;-33
2022/01/20 06:06:27;;;;;;;0.00;0.00;;;;;;;;;;1833805;78;26380;-34
2022/01/20 06:08:55;;;;;;;0.20;0.20;;;;;;;;;;1833184;78;26297;-32
2022/01/20 06:11:22;;;;;;;0.55;0.10;;;;;;;;;;1824375;78;26784;-33
2022/01/20 06:13:50;;;;;;;0.28;0.20;;;;;;;;;;1832466;77;26978;-33
2022/01/20 06:16:17;;;;;;;0.13;0.13;;;;;;;;;;1833453;78;26282;-33
2022/01/20 06:18:44;;;;;;;0.10;0.10;;;;;;;;;;1833366;78;26215;-33
2022/01/20 06:21:12;;;;;;;0.20;0.20;;;;;;;;;;1833266;78;26266;-32
2022/01/20 06:23:40;;;;;;;0.10;0.10;;;;;;;;;;1833427;78;26347;-32
2022/01/20 06:26:07;;;;;;;0.10;0.10;;;;;;;;;;1833463;78;26337;-35
2022/01/20 06:28:36;;;;;;;0.10;0.10;;;;;;;;;;1833466;78;26629;-35
2022/01/20 06:31:04;;;;;;;0.25;0.25;;;;;;;;;;1833427;78;26290;-33
2022/01/20 06:33:31;;;;;;;0.10;0.10;;;;;;;;;;1833211;78;26697;-33
2022/01/20 06:35:59;;;;;;;0.20;0.20;;;;;;;;;;1833354;78;27213;-34
2022/01/20 06:38:26;;;;;;;0.15;0.15;;;;;;;;;;1833353;77;26400;-32
2022/01/20 06:40:54;;;;;;;0.10;0.10;;;;;;;;;;1833364;78;26349;-33
2022/01/20 06:43:22;;;;;;;0.10;0.10;;;;;;;;;;1831804;78;26290;-33
2022/01/20 06:45:49;;;;;;;0.20;0.20;;;;;;;;;;1833228;78;26627;-37
2022/01/20 06:48:17;;;;;;;0.10;0.10;;;;;;;;;;1833444;78;26310;-36
2022/01/20 06:50:44;;;;;;;0.17;0.17;;;;;;;;;;1833460;78;26298;-33
2022/01/20 06:53:12;;;;;;;0.08;0.08;;;;;;;;;;1833271;78;26282;-33
2022/01/20 06:55:39;;;;;;;0.10;0.10;;;;;;;;;;1833412;78;26251;-33
2022/01/20 06:58:06;;;;;;;0.17;0.17;;;;;;;;;;1830764;78;26807;-34
2022/01/20 07:00:34;;;;;;;0.20;0.20;;;;;;;;;;1833207;78;26282;-35
2022/01/20 07:03:01;;;;;;;0.10;0.10;;;;;;;;;;1832936;78;26752;-33
2022/01/20 07:05:29;;;;;;;0.10;0.10;;;;;;;;;;1833285;78;26395;-35
2022/01/20 07:07:56;;;;;;;0.10;0.10;;;;;;;;;;1833164;78;26281;-34
2022/01/20 07:10:23;;;;;;;0.10;0.10;;;;;;;;;;1833235;78;26270;-34
2022/01/20 07:12:51;;;;;;;0.15;0.15;;;;;;;;;;1831228;77;26340;-36
2022/01/20 07:15:18;;;;;;;0.10;0.10;;;;;;;;;;1829684;78;26282;-33
2022/01/20 07:17:46;;;;;;;0.20;0.20;;;;;;;;;;1832324;78;26734;-36
2022/01/20 07:20:14;;;;;;;0.10;0.10;;;;;;;;;;1831917;78;26282;-36
2022/01/20 07:22:41;;;;;;;0.10;0.10;;;;;;;;;;1832706;78;26274;-33
2022/01/20 07:25:09;;;;;;;0.10;0.10;;;;;;;;;;1832984;78;26278;-33
2022/01/20 07:27:36;;;;;;;0.40;0.25;;;;;;;;;;1833264;78;26263;-33
2022/01/20 07:30:04;;;;;;;0.20;0.20;;;;;;;;;;1833405;78;26297;-35
2022/01/20 07:32:32;;;;;;;1.35;0.10;;;;;;;;;;1833030;78;26819;-36
2022/01/20 07:34:59;;;;;;;0.53;0.10;;;;;;;;;;1833395;78;26839;-33
2022/01/20 07:37:26;;;;;;;0.10;0.10;;;;;;;;;;1832985;78;26304;-33
2022/01/20 07:39:55;;;;;;;1.30;0.10;;;;;;;;;;1833125;78;26299;-33
2022/01/20 07:42:22;;;;;;;0.72;0.23;;;;;;;;;;1832137;78;26299;-33
2022/01/20 07:44:50;;;;;;;0.10;0.10;;;;;;;;;;1828638;78;26402;-33
2022/01/20 07:47:17;;;;;;;0.30;0.30;;;;;;;;;;1817094;78;26277;-33
2022/01/20 07:49:44;;;;;;;1.27;0.20;;;;;;;;;;1832153;78;26290;-33
2022/01/20 07:52:12;;;;;;;0.70;0.30;;;;;;;;;;1833019;78;26282;-33
2022/01/20 07:54:40;;;;;;;0.15;0.15;;;;;;;;;;1831197;78;26303;-33
2022/01/20 07:57:07;;;;;;;0.60;0.20;;;;;;;;;;1832421;78;26266;-34
2022/01/20 07:59:35;;;;;;;0.45;0.20;;;;;;;;;;1831107;78;26275;-33
2022/01/20 08:02:02;;;;;;;0.17;0.17;;;;;;;;;;1829383;78;26302;-36
2022/01/20 08:04:30;;;;;;;1.87;0.20;;;;;;;;;;1827123;78;26360;-35
2022/01/20 08:06:57;;;;;;;1.20;0.30;;;;;;;;;;1831914;78;26405;-37
2022/01/20 08:09:24;;;;;;;1.35;0.15;;;;;;;;;;1830848;78;26286;-35
2022/01/20 08:11:51;;;;;;;0.20;0.20;;;;;;;;;;1831544;78;26336;-33
2022/01/20 08:14:19;;;;;;;0.40;0.33;;;;;;;;;;1832714;77;26330;-37
2022/01/20 08:16:46;;;;;;;0.30;0.30;;;;;;;;;;1833105;78;26290;-33
2022/01/20 08:19:13;;;;;;;0.62;0.20;;;;;;;;;;1832950;78;26279;-34
2022/01/20 08:21:41;;;;;;;0.20;0.20;;;;;;;;;;1832869;78;26287;-34
2022/01/20 08:24:08;;;;;;;0.62;0.30;;;;;;;;;;1820341;78;26730;-35
2022/01/20 08:26:35;;;;;;;0.10;0.10;;;;;;;;;;1833338;78;26654;-36
2022/01/20 08:29:03;;;;;;;0.25;0.17;;;;;;;;;;1832896;78;26274;-33
2022/01/20 08:31:31;;;;;;;0.17;0.17;;;;;;;;;;1832861;78;26750;-37
2022/01/20 08:33:58;;;;;;;2.72;0.90;;;;;;;;;;1822971;78;26375;-36
2022/01/20 08:36:25;;;;;;;2.00;0.47;;;;;;;;;;1821921;78;26762;-33
2022/01/20 08:38:53;;;;;;;0.42;0.17;;;;;;;;;;1826801;77;26313;-33
2022/01/20 08:41:20;;;;;;;0.65;0.25;;;;;;;;;;1825183;78;26817;-33
2022/01/20 08:43:48;;;;;;;0.57;0.40;;;;;;;;;;1832617;78;26263;-34
2022/01/20 08:46:19;;;;;;;1.77;0.30;;;;;;;;;;1829071;78;26286;-36
2022/01/20 08:48:44;;;;;;;0.72;0.30;;;;;;;;;;1832148;78;26318;-34
2022/01/20 08:51:12;;;;;;;1.40;0.33;;;;;;;;;;1832695;78;26258;-33
2022/01/20 08:53:39;;;;;;;0.90;0.60;;;;;;;;;;1832808;78;26573;-35
2022/01/20 08:56:07;;;;;;;2.35;0.50;;;;;;;;;;1833034;78;26341;-33
2022/01/20 08:58:34;;;;;;;0.93;0.50;;;;;;;;;;1833174;78;26712;-34
2022/01/20 09:01:03;;;;;;;0.45;0.20;;;;;;;;;;1822191;78;26306;-33
2022/01/20 09:03:32;;;;;;;0.45;0.45;;;;;;;;;;1832073;78;26349;-32
2022/01/20 09:05:59;;;;;;;1.52;0.68;;;;;;;;;;1832861;78;27504;-35
2022/01/20 09:08:26;;;;;;;2.90;0.75;;;;;;;;;;1809347;78;26727;-32
2022/01/20 09:10:54;;;;;;;0.42;0.28;;;;;;;;;;1802360;79;26276;-37
2022/01/20 09:16:07;;;;;;;1.75;0.50;;;;;;;;;;1801373;79;26449;-34
2022/01/20 09:18:35;;;;;;;1.15;0.40;;;;;;;;;;1805038;79;26330;-36
2022/01/20 09:21:03;;;;;;;0.75;0.40;;;;;;;;;;1800178;79;26317;-33
2022/01/20 09:23:30;;;;;;;1.05;0.30;;;;;;;;;;1806051;78;26281;-34
2022/01/20 09:25:57;;;;;;;0.20;0.20;;;;;;;;;;1806367;79;26271;-33
2022/01/20 09:28:26;;;;;;;1.22;0.30;;;;;;;;;;1806116;79;26264;-35
2022/01/20 09:30:57;;;;;;;0.40;0.35;;;;;;;;;;1806206;79;26361;-33
2022/01/20 09:33:26;;;;;;;0.40;0.40;;;;;;;;;;1805092;79;26925;-35
2022/01/20 09:35:54;;;;;;;1.10;0.13;;;;;;;;;;1804897;79;26378;-32
2022/01/20 09:38:22;;;;;;;0.75;0.35;;;;;;;;;;1790364;79;26275;-32
2022/01/20 09:40:49;;;;;;;1.12;0.30;;;;;;;;;;1806257;79;26261;-33
2022/01/20 09:43:17;;;;;;;1.20;0.50;;;;;;;;;;1806236;79;26625;-33
2022/01/20 09:45:46;;;;;;;0.60;0.20;;;;;;;;;;1806076;79;27474;-33
2022/01/20 09:48:13;;;;;;;0.85;0.40;;;;;;;;;;1803992;79;26280;-35
2022/01/20 09:50:41;;;;;;;0.78;0.30;;;;;;;;;;1803799;78;26228;-34
2022/01/20 09:53:09;;;;;;;5.25;0.78;;;;;;;;;;1805657;79;27536;-35
2022/01/20 09:55:37;;;;;;;0.88;0.40;;;;;;;;;;1805831;79;26377;-35
2022/01/20 09:58:05;;;;;;;0.50;0.50;;;;;;;;;;1803344;79;26355;-38
2022/01/20 10:00:33;;;;;;;2.85;0.60;;;;;;;;;;1800521;79;26301;-38
2022/01/20 10:03:02;;;;;;;1.52;0.65;;;;;;;;;;1802762;79;27584;-38
2022/01/20 10:05:37;;;;;;;0.50;0.50;;;;;;;;;;1805888;79;27320;-33
2022/01/20 10:08:05;;;;;;;1.27;0.50;;;;;;;;;;1817924;78;26744;-34
2022/01/20 10:10:40;;;;;;;1.40;0.50;;;;;;;;;;1824563;78;26388;-34
2022/01/20 10:13:08;;;;;;;2.12;0.60;;;;;;;;;;1831550;77;26635;-36
2022/01/20 10:15:37;;;;;;;0.33;0.33;;;;;;;;;;1832870;78;26302;-34
2022/01/20 10:18:08;;;;;;;0.60;0.60;;;;;;;;;;1832764;78;26407;-32
2022/01/20 10:20:36;;;;;;;1.47;0.47;;;;;;;;;;1832807;78;26353;-31
2022/01/20 10:23:04;;;;;;;0.47;0.40;;;;;;;;;;1829687;77;26311;-31
2022/01/20 10:25:35;;;;;;;0.95;0.50;;;;;;;;;;1829417;78;26285;-39
2022/01/20 10:28:02;;;;;;;1.12;0.60;;;;;;;;;;1829192;78;27964;-37
2022/01/20 10:30:30;;;;;;;0.60;0.60;;;;;;;;;;1832803;78;26273;-37
2022/01/20 10:32:59;;;;;;;1.90;0.50;;;;;;;;;;1828750;78;26287;-32
2022/01/20 10:35:36;;;;;;;1.98;0.42;;;;;;;;;;1832934;78;26262;-35
2022/01/20 10:38:15;;;;;;;0.82;0.60;;;;;;;;;;1832147;78;26306;-37
2022/01/20 10:40:33;;;;;;;0.57;0.50;;;;;;;;;;1828402;77;26809;-32
2022/01/20 10:43:00;;;;;;;1.62;0.50;;;;;;;;;;1832777;78;26702;-35
2022/01/20 10:45:29;;;;;;;3.08;0.35;;;;;;;;;;1832950;78;26262;-37
2022/01/20 10:47:58;;;;;;;0.53;0.40;;;;;;;;;;1833200;78;26827;-36
2022/01/20 10:50:27;;;;;;;2.02;0.60;;;;;;;;;;1833089;78;27171;-33
2022/01/20 10:52:55;;;;;;;0.30;0.30;;;;;;;;;;1832341;78;26631;-36
2022/01/20 10:55:24;;;;;;;0.50;0.45;;;;;;;;;;1830739;78;26274;-34
2022/01/20 10:57:52;;;;;;;0.65;0.40;;;;;;;;;;1832286;78;26734;-33
2022/01/20 11:00:21;;;;;;;1.07;0.57;;;;;;;;;;1831525;78;26297;-35
2022/01/20 11:02:49;;;;;;;0.42;0.40;;;;;;;;;;1831974;78;26341;-34
2022/01/20 11:05:17;;;;;;;1.55;0.47;;;;;;;;;;1832718;78;26764;-37
2022/01/20 11:07:45;;;;;;;0.50;0.50;;;;;;;;;;1828235;78;26335;-34
2022/01/20 11:10:13;;;;;;;0.30;0.30;;;;;;;;;;1806419;79;26490;-34
2022/01/20 11:12:41;;;;;;;0.37;0.37;;;;;;;;;;1805937;78;26291;-38
2022/01/20 11:15:10;;;;;;;0.40;0.40;;;;;;;;;;1806207;79;26283;-40
2022/01/20 11:17:40;;;;;;;0.40;0.40;;;;;;;;;;1805101;79;26342;-36
2022/01/20 11:20:12;;;;;;;3.22;0.62;;;;;;;;;;1804660;79;26240;-35
2022/01/20 11:22:41;;;;;;;0.30;0.30;;;;;;;;;;1806128;79;26291;-37
2022/01/20 11:25:10;;;;;;;0.30;0.30;;;;;;;;;;1802078;79;26268;-40
2022/01/20 11:27:38;;;;;;;1.45;0.40;;;;;;;;;;1803743;79;26268;-36
2022/01/20 11:30:21;;;;;;;0.53;0.50;;;;;;;;;;1806306;79;26667;-37
2022/01/20 11:33:02;;;;;;;1.50;0.40;;;;;;;;;;1804359;79;26361;-35
2022/01/20 11:35:39;;;;;;;0.40;0.40;;;;;;;;;;1804734;79;27305;-35
2022/01/20 11:38:07;;;;;;;0.37;0.37;;;;;;;;;;1806404;79;26382;-35
2022/01/20 11:40:36;;;;;;;0.57;0.42;;;;;;;;;;1804707;79;26307;-35
2022/01/20 11:43:07;;;;;;;0.53;0.53;;;;;;;;;;1805565;79;26794;-40
2022/01/20 11:45:35;;;;;;;0.50;0.50;;;;;;;;;;1799794;79;26398;-35
2022/01/20 11:48:12;;;;;;;0.37;0.30;;;;;;;;;;1805056;79;26334;-38
2022/01/20 11:50:40;;;;;;;0.40;0.40;;;;;;;;;;1807069;79;26275;-35
2022/01/20 11:53:11;;;;;;;0.45;0.37;;;;;;;;;;1806203;79;26876;-34
2022/01/20 11:55:42;;;;;;;0.30;0.30;;;;;;;;;;1805370;79;26256;-40
2022/01/20 11:58:11;;;;;;;1.02;0.40;;;;;;;;;;1802557;79;26271;-34
2022/01/20 12:00:40;;;;;;;0.75;0.40;;;;;;;;;;1803580;79;26267;-37
2022/01/20 12:03:14;;;;;;;0.50;0.50;;;;;;;;;;1806393;79;27375;-34
2022/01/20 12:05:42;;;;;;;0.55;0.30;;;;;;;;;;1802461;79;26763;-33
2022/01/20 12:08:11;;;;;;;0.23;0.23;;;;;;;;;;1809737;78;26409;-36
2022/01/20 12:10:39;;;;;;;1.45;0.25;;;;;;;;;;1832063;78;26372;-37
2022/01/20 12:13:07;;;;;;;0.40;0.40;;;;;;;;;;1829998;77;26302;-38
2022/01/20 12:15:35;;;;;;;1.10;0.47;;;;;;;;;;1827347;78;26727;-33
2022/01/20 12:18:02;;;;;;;0.75;0.40;;;;;;;;;;1832871;78;26282;-36
2022/01/20 12:20:30;;;;;;;0.23;0.23;;;;;;;;;;1827358;78;26355;-35
2022/01/20 12:22:58;;;;;;;0.82;0.30;;;;;;;;;;1833293;78;26320;-35
2022/01/20 12:25:29;;;;;;;0.23;0.23;;;;;;;;;;1834063;77;26345;-33
2022/01/20 12:28:03;;;;;;;0.40;0.40;;;;;;;;;;1832835;78;26325;-37
2022/01/20 12:30:31;;;;;;;0.23;0.23;;;;;;;;;;1833827;78;26372;-33
2022/01/20 12:32:59;;;;;;;0.30;0.30;;;;;;;;;;1832902;78;26450;-33
2022/01/20 12:35:44;;;;;;;0.23;0.23;;;;;;;;;;1832953;78;26604;-33
2022/01/20 12:38:27;;;;;;;0.20;0.20;;;;;;;;;;1831644;78;26364;-35
2022/01/20 12:41:02;;;;;;;0.50;0.50;;;;;;;;;;1826465;77;26242;-32
2022/01/20 12:43:37;;;;;;;0.50;0.50;;;;;;;;;;1826815;78;26360;-38
2022/01/20 12:46:04;;;;;;;0.37;0.37;;;;;;;;;;1831610;78;26310;-34
2022/01/20 12:48:31;;;;;;;0.30;0.30;;;;;;;;;;1832736;78;26758;-34
2022/01/20 12:51:01;;;;;;;0.20;0.20;;;;;;;;;;1833606;78;26278;-34
2022/01/20 12:53:36;;;;;;;0.13;0.13;;;;;;;;;;1830238;78;26910;-35
2022/01/20 12:56:05;;;;;;;0.40;0.40;;;;;;;;;;1824345;78;26374;-35
2022/01/20 12:58:34;;;;;;;0.40;0.40;;;;;;;;;;1832956;77;26703;-36
2022/01/20 13:01:02;;;;;;;0.30;0.30;;;;;;;;;;1830084;78;27321;-34
2022/01/20 13:03:34;;;;;;;0.37;0.37;;;;;;;;;;1825503;78;28286;-34
2022/01/20 13:06:02;;;;;;;0.23;0.23;;;;;;;;;;1830038;78;26360;-33
2022/01/20 13:08:33;;;;;;;0.25;0.25;;;;;;;;;;1832315;78;26505;-32
2022/01/20 13:11:02;;;;;;;0.47;0.20;;;;;;;;;;1829675;78;26779;-33
2022/01/20 13:13:30;;;;;;;0.20;0.20;;;;;;;;;;1832546;77;26310;-33
2022/01/20 13:15:57;;;;;;;0.20;0.20;;;;;;;;;;1833884;78;26274;-33
2022/01/20 13:18:24;;;;;;;0.20;0.20;;;;;;;;;;1833737;78;26696;-35
2022/01/20 13:20:54;;;;;;;0.17;0.17;;;;;;;;;;1833892;78;26199;-35
2022/01/20 13:25:51;;;;;;;0.20;0.20;;;;;;;;;;1834288;78;26286;-38
2022/01/20 13:28:19;;;;;;;0.17;0.17;;;;;;;;;;1832025;78;26267;-34
2022/01/20 13:30:50;;;;;;;0.20;0.20;;;;;;;;;;1833698;78;26215;-34
2022/01/20 13:33:22;;;;;;;0.10;0.10;;;;;;;;;;1833094;78;26334;-37
2022/01/20 13:35:51;;;;;;;0.25;0.25;;;;;;;;;;1833669;78;26282;-34
2022/01/20 13:38:19;;;;;;;0.57;0.20;;;;;;;;;;1833194;78;26349;-38
2022/01/20 13:40:47;;;;;;;1.65;0.40;;;;;;;;;;1827715;78;26273;-39
2022/01/20 13:46:02;;;;;;;0.23;0.20;;;;;;;;;;1833033;78;26298;-34
2022/01/20 13:48:34;;;;;;;0.20;0.20;;;;;;;;;;1830154;78;26329;-31
2022/01/20 13:51:03;;;;;;;0.20;0.20;;;;;;;;;;1833469;78;26278;-32
2022/01/20 13:53:31;;;;;;;0.30;0.30;;;;;;;;;;1830266;78;26259;-32
2022/01/20 13:56:00;;;;;;;0.30;0.30;;;;;;;;;;1834096;78;26274;-33
2022/01/20 13:58:28;;;;;;;0.33;0.10;;;;;;;;;;1833259;78;26267;-33
2022/01/20 14:00:57;;;;;;;0.20;0.20;;;;;;;;;;1832750;78;26306;-36
2022/01/20 14:03:25;;;;;;;0.20;0.20;;;;;;;;;;1833466;77;26274;-33
2022/01/20 14:05:55;;;;;;;1.20;0.40;;;;;;;;;;1834012;78;26333;-34
2022/01/20 14:08:23;;;;;;;0.15;0.15;;;;;;;;;;1833373;78;26398;-34
2022/01/20 14:10:51;;;;;;;0.35;0.08;;;;;;;;;;1812673;78;26308;-36
2022/01/20 14:13:18;;;;;;;1.07;0.20;;;;;;;;;;1807121;78;25895;-32
2022/01/20 14:15:47;;;;;;;1.55;0.10;;;;;;;;;;1805907;79;26873;-33
2022/01/20 14:18:19;;;;;;;0.20;0.20;;;;;;;;;;1806717;79;26947;-36
2022/01/20 14:20:46;;;;;;;0.30;0.30;;;;;;;;;;1803305;79;27001;-34
2022/01/20 14:23:12;;;;;;;0.25;0.25;;;;;;;;;;1803427;79;26346;-34
2022/01/20 14:25:42;;;;;;;0.30;0.30;;;;;;;;;;1806644;79;26220;-33
2022/01/20 14:28:09;;;;;;;0.28;0.28;;;;;;;;;;1807272;79;26348;-33
2022/01/20 14:30:38;;;;;;;0.30;0.28;;;;;;;;;;1806989;79;26263;-34
2022/01/20 14:33:07;;;;;;;0.23;0.23;;;;;;;;;;1807067;79;26620;-34
2022/01/20 14:35:34;;;;;;;0.20;0.17;;;;;;;;;;1807074;79;26414;-34
2022/01/20 14:38:02;;;;;;;0.30;0.30;;;;;;;;;;1806364;78;26339;-34
2022/01/20 14:40:29;;;;;;;0.35;0.30;;;;;;;;;;1807207;79;26355;-34
2022/01/20 14:42:57;;;;;;;2.58;0.40;;;;;;;;;;1806501;79;26276;-34
2022/01/20 14:45:24;;;;;;;0.30;0.30;;;;;;;;;;1807495;79;26807;-34
2022/01/20 14:47:54;;;;;;;0.20;0.20;;;;;;;;;;1807231;79;26333;-35
2022/01/20 14:50:22;;;;;;;0.30;0.30;;;;;;;;;;1807461;79;26766;-33
2022/01/20 14:52:50;;;;;;;0.30;0.30;;;;;;;;;;1807051;79;26283;-33
2022/01/20 14:55:17;;;;;;;2.55;0.25;;;;;;;;;;1807382;79;26216;-33
2022/01/20 14:57:45;;;;;;;0.30;0.30;;;;;;;;;;1807487;79;26334;-34
2022/01/20 15:00:15;;;;;;;0.20;0.20;;;;;;;;;;1806140;79;26272;-34
2022/01/20 15:02:47;;;;;;;0.23;0.23;;;;;;;;;;1806640;79;26256;-34
2022/01/20 15:05:16;;;;;;;0.30;0.30;;;;;;;;;;1807121;79;26813;-33
2022/01/20 15:07:44;;;;;;;0.68;0.30;;;;;;;;;;1807593;79;26271;-34
2022/01/20 15:10:12;;;;;;;0.23;0.20;;;;;;;;;;1807079;79;26307;-33
2022/01/20 15:12:40;;;;;;;0.20;0.20;;;;;;;;;;1809943;78;26315;-35
2022/01/20 15:15:08;;;;;;;1.87;0.30;;;;;;;;;;1807142;78;26330;-34
2022/01/20 15:17:35;;;;;;;0.50;0.25;;;;;;;;;;1804312;79;26731;-34
2022/01/20 15:20:03;;;;;;;1.00;0.90;;;;;;;;;;1807669;79;26275;-35
2022/01/20 15:22:30;;;;;;;0.55;0.20;;;;;;;;;;1806940;79;26275;-32
2022/01/20 15:24:58;;;;;;;0.75;0.50;;;;;;;;;;1807339;79;26740;-31
2022/01/20 15:27:25;;;;;;;0.25;0.25;;;;;;;;;;1793036;79;26721;-30
2022/01/20 15:29:52;;;;;;;0.20;0.20;;;;;;;;;;1806318;79;26788;-32
2022/01/20 15:32:19;;;;;;;0.98;0.42;;;;;;;;;;1807289;79;26789;-35
2022/01/20 15:34:47;;;;;;;0.40;0.30;;;;;;;;;;1802980;79;26366;-31
2022/01/20 15:37:14;;;;;;;1.57;0.30;;;;;;;;;;1805834;79;26276;-33
2022/01/20 15:39:41;;;;;;;0.37;0.37;;;;;;;;;;1806507;79;26341;-33
2022/01/20 15:42:09;;;;;;;0.30;0.30;;;;;;;;;;1806669;79;26296;-34
2022/01/20 15:44:36;;;;;;;2.22;0.30;;;;;;;;;;1806758;79;26436;-32
2022/01/20 15:47:04;;;;;;;1.72;0.42;;;;;;;;;;1806180;79;26621;-32
2022/01/20 15:49:31;;;;;;;0.20;0.20;;;;;;;;;;1798512;79;26289;-33
2022/01/20 15:51:59;;;;;;;0.50;0.20;;;;;;;;;;1800096;78;26389;-34
2022/01/20 15:54:26;;;;;;;1.87;0.40;;;;;;;;;;1804033;79;26394;-34
2022/01/20 15:56:53;;;;;;;0.30;0.30;;;;;;;;;;1806003;79;26406;-32